sensor_id;sensor_type;location;lat;lon;timestamp;P1;durP1;ratioP1;P2;durP2;ratioP2
61188;SDS011;47054;39.716;2.904;2023-01-04T00:02:06;5.93;;;3.03;;
61188;SDS011;47054;39.716;2.904;2023-01-04T00:04:50;6.07;;;3.47;;
61188;SDS011;47054;39.716;2.904;2023-01-04T00:07:35;7.55;;;3.30;;
61188;SDS011;47054;39.716;2.904;2023-01-04T00:10:19;6.82;;;3.53;;
61188;SDS011;47054;39.716;2.904;2023-01-04T00:13:04;6.07;;;3.10;;
61188;SDS011;47054;39.716;2.904;2023-01-04T00:15:48;4.85;;;3.10;;
61188;SDS011;47054;39.716;2.904;2023-01-04T00:18:33;6.35;;;3.10;;
61188;SDS011;47054;39.716;2.904;2023-01-04T00:21:28;7.07;;;2.90;;
61188;SDS011;47054;39.716;2.904;2023-01-04T00:24:13;5.57;;;3.08;;
61188;SDS011;47054;39.716;2.904;2023-01-04T00:26:58;7.13;;;2.90;;
61188;SDS011;47054;39.716;2.904;2023-01-04T00:29:43;5.43;;;3.03;;
61188;SDS011;47054;39.716;2.904;2023-01-04T00:32:27;4.78;;;2.85;;
61188;SDS011;47054;39.716;2.904;2023-01-04T00:35:12;5.78;;;2.80;;
61188;SDS011;47054;39.716;2.904;2023-01-04T00:37:56;6.20;;;3.00;;
61188;SDS011;47054;39.716;2.904;2023-01-04T00:40:41;8.32;;;3.17;;
61188;SDS011;47054;39.716;2.904;2023-01-04T00:43:25;8.10;;;3.25;;
61188;SDS011;47054;39.716;2.904;2023-01-04T00:46:10;4.25;;;2.67;;
61188;SDS011;47054;39.716;2.904;2023-01-04T00:48:55;4.93;;;2.97;;
61188;SDS011;47054;39.716;2.904;2023-01-04T00:51:39;5.25;;;3.00;;
61188;SDS011;47054;39.716;2.904;2023-01-04T00:54:25;4.93;;;3.03;;
61188;SDS011;47054;39.716;2.904;2023-01-04T00:57:10;7.40;;;2.97;;
61188;SDS011;47054;39.716;2.904;2023-01-04T00:59:55;5.38;;;2.78;;
61188;SDS011;47054;39.716;2.904;2023-01-04T01:02:39;4.70;;;2.55;;
61188;SDS011;47054;39.716;2.904;2023-01-04T01:05:24;4.60;;;2.90;;
61188;SDS011;47054;39.716;2.904;2023-01-04T01:08:10;4.63;;;2.58;;
61188;SDS011;47054;39.716;2.904;2023-01-04T01:11:10;5.03;;;2.90;;
61188;SDS011;47054;39.716;2.904;2023-01-04T01:13:55;4.63;;;2.85;;
61188;SDS011;47054;39.716;2.904;2023-01-04T01:16:41;6.45;;;3.00;;
61188;SDS011;47054;39.716;2.904;2023-01-04T01:19:26;5.57;;;3.05;;
61188;SDS011;47054;39.716;2.904;2023-01-04T01:22:12;4.40;;;2.45;;
61188;SDS011;47054;39.716;2.904;2023-01-04T01:24:56;5.30;;;2.80;;
61188;SDS011;47054;39.716;2.904;2023-01-04T01:27:41;4.50;;;2.72;;
61188;SDS011;47054;39.716;2.904;2023-01-04T01:30:25;4.85;;;2.53;;
61188;SDS011;47054;39.716;2.904;2023-01-04T01:33:10;5.28;;;2.70;;
61188;SDS011;47054;39.716;2.904;2023-01-04T01:35:58;5.05;;;2.63;;
61188;SDS011;47054;39.716;2.904;2023-01-04T01:38:44;5.43;;;2.75;;
61188;SDS011;47054;39.716;2.904;2023-01-04T01:41:30;5.78;;;3.13;;
61188;SDS011;47054;39.716;2.904;2023-01-04T01:47:34;5.63;;;2.83;;
61188;SDS011;47054;39.716;2.904;2023-01-04T01:50:28;6.28;;;3.20;;
61188;SDS011;47054;39.716;2.904;2023-01-04T01:53:18;4.65;;;2.33;;
61188;SDS011;47054;39.716;2.904;2023-01-04T01:56:04;4.63;;;2.60;;
61188;SDS011;47054;39.716;2.904;2023-01-04T01:58:52;4.40;;;2.50;;
61188;SDS011;47054;39.716;2.904;2023-01-04T02:01:39;4.68;;;2.38;;
61188;SDS011;47054;39.716;2.904;2023-01-04T02:04:23;4.82;;;2.80;;
61188;SDS011;47054;39.716;2.904;2023-01-04T02:07:09;5.18;;;2.70;;
61188;SDS011;47054;39.716;2.904;2023-01-04T02:09:56;4.93;;;2.20;;
61188;SDS011;47054;39.716;2.904;2023-01-04T02:12:42;6.43;;;2.50;;
61188;SDS011;47054;39.716;2.904;2023-01-04T02:15:28;5.05;;;2.45;;
61188;SDS011;47054;39.716;2.904;2023-01-04T02:18:25;4.80;;;2.60;;
61188;SDS011;47054;39.716;2.904;2023-01-04T02:24:11;4.50;;;2.38;;
61188;SDS011;47054;39.716;2.904;2023-01-04T02:27:12;5.45;;;2.50;;
61188;SDS011;47054;39.716;2.904;2023-01-04T02:33:37;3.78;;;2.33;;
61188;SDS011;47054;39.716;2.904;2023-01-04T02:46:48;3.72;;;2.20;;
61188;SDS011;47054;39.716;2.904;2023-01-04T02:49:38;3.45;;;2.05;;
61188;SDS011;47054;39.716;2.904;2023-01-04T02:52:41;4.47;;;2.25;;
61188;SDS011;47054;39.716;2.904;2023-01-04T02:55:28;3.58;;;2.28;;
61188;SDS011;47054;39.716;2.904;2023-01-04T03:08:55;5.23;;;2.50;;
61188;SDS011;47054;39.716;2.904;2023-01-04T03:11:48;3.10;;;1.90;;
61188;SDS011;47054;39.716;2.904;2023-01-04T03:20:43;2.95;;;1.73;;
61188;SDS011;47054;39.716;2.904;2023-01-04T03:23:33;4.78;;;2.25;;
61188;SDS011;47054;39.716;2.904;2023-01-04T03:26:40;4.22;;;2.30;;
61188;SDS011;47054;39.716;2.904;2023-01-04T03:36:10;3.95;;;2.17;;
61188;SDS011;47054;39.716;2.904;2023-01-04T03:39:17;4.80;;;2.50;;
61188;SDS011;47054;39.716;2.904;2023-01-04T03:45:44;3.50;;;2.00;;
61188;SDS011;47054;39.716;2.904;2023-01-04T03:51:43;4.05;;;2.10;;
61188;SDS011;47054;39.716;2.904;2023-01-04T03:54:37;5.43;;;2.53;;
61188;SDS011;47054;39.716;2.904;2023-01-04T03:57:25;3.45;;;2.13;;
61188;SDS011;47054;39.716;2.904;2023-01-04T04:00:11;3.55;;;2.20;;
61188;SDS011;47054;39.716;2.904;2023-01-04T04:02:58;3.80;;;1.98;;
61188;SDS011;47054;39.716;2.904;2023-01-04T04:05:50;3.80;;;2.20;;
61188;SDS011;47054;39.716;2.904;2023-01-04T04:08:53;3.22;;;1.90;;
61188;SDS011;47054;39.716;2.904;2023-01-04T04:11:38;3.97;;;2.17;;
61188;SDS011;47054;39.716;2.904;2023-01-04T04:14:22;3.83;;;1.90;;
61188;SDS011;47054;39.716;2.904;2023-01-04T04:17:07;3.97;;;2.00;;
61188;SDS011;47054;39.716;2.904;2023-01-04T04:19:51;3.58;;;1.90;;
61188;SDS011;47054;39.716;2.904;2023-01-04T04:22:36;3.15;;;1.83;;
61188;SDS011;47054;39.716;2.904;2023-01-04T04:25:20;3.55;;;1.90;;
61188;SDS011;47054;39.716;2.904;2023-01-04T04:28:05;5.03;;;2.00;;
61188;SDS011;47054;39.716;2.904;2023-01-04T04:30:49;3.42;;;1.85;;
61188;SDS011;47054;39.716;2.904;2023-01-04T04:33:35;3.28;;;1.90;;
61188;SDS011;47054;39.716;2.904;2023-01-04T04:36:19;5.32;;;1.75;;
61188;SDS011;47054;39.716;2.904;2023-01-04T04:39:04;3.08;;;1.70;;
61188;SDS011;47054;39.716;2.904;2023-01-04T04:41:49;4.60;;;2.10;;
61188;SDS011;47054;39.716;2.904;2023-01-04T04:44:33;3.50;;;1.90;;
61188;SDS011;47054;39.716;2.904;2023-01-04T04:47:19;3.53;;;2.00;;
61188;SDS011;47054;39.716;2.904;2023-01-04T04:50:03;4.18;;;2.15;;
61188;SDS011;47054;39.716;2.904;2023-01-04T04:52:48;3.28;;;1.98;;
61188;SDS011;47054;39.716;2.904;2023-01-04T04:55:32;3.70;;;1.80;;
61188;SDS011;47054;39.716;2.904;2023-01-04T04:58:17;3.03;;;1.80;;
61188;SDS011;47054;39.716;2.904;2023-01-04T05:01:02;4.50;;;1.92;;
61188;SDS011;47054;39.716;2.904;2023-01-04T05:03:47;3.78;;;1.80;;
61188;SDS011;47054;39.716;2.904;2023-01-04T05:06:32;3.08;;;1.73;;
61188;SDS011;47054;39.716;2.904;2023-01-04T05:09:18;3.20;;;1.67;;
61188;SDS011;47054;39.716;2.904;2023-01-04T05:12:02;2.45;;;1.63;;
61188;SDS011;47054;39.716;2.904;2023-01-04T05:15:06;3.90;;;1.90;;
61188;SDS011;47054;39.716;2.904;2023-01-04T05:17:51;3.45;;;1.90;;
61188;SDS011;47054;39.716;2.904;2023-01-04T05:20:36;3.38;;;1.80;;
61188;SDS011;47054;39.716;2.904;2023-01-04T05:23:21;2.60;;;1.58;;
61188;SDS011;47054;39.716;2.904;2023-01-04T05:26:06;3.20;;;1.70;;
61188;SDS011;47054;39.716;2.904;2023-01-04T05:28:51;3.45;;;1.90;;
61188;SDS011;47054;39.716;2.904;2023-01-04T05:31:36;4.25;;;1.80;;
61188;SDS011;47054;39.716;2.904;2023-01-04T05:34:21;3.80;;;1.80;;
61188;SDS011;47054;39.716;2.904;2023-01-04T05:37:05;3.20;;;1.67;;
61188;SDS011;47054;39.716;2.904;2023-01-04T05:39:50;3.28;;;1.65;;
61188;SDS011;47054;39.716;2.904;2023-01-04T05:42:34;3.08;;;1.77;;
61188;SDS011;47054;39.716;2.904;2023-01-04T05:45:19;3.05;;;1.80;;
61188;SDS011;47054;39.716;2.904;2023-01-04T05:48:05;3.13;;;1.83;;
61188;SDS011;47054;39.716;2.904;2023-01-04T05:50:51;4.85;;;1.80;;
61188;SDS011;47054;39.716;2.904;2023-01-04T05:53:37;3.50;;;1.83;;
61188;SDS011;47054;39.716;2.904;2023-01-04T05:56:21;3.67;;;1.95;;
61188;SDS011;47054;39.716;2.904;2023-01-04T05:59:06;3.30;;;1.88;;
61188;SDS011;47054;39.716;2.904;2023-01-04T06:01:50;3.05;;;1.60;;
61188;SDS011;47054;39.716;2.904;2023-01-04T06:04:35;2.58;;;1.80;;
61188;SDS011;47054;39.716;2.904;2023-01-04T06:07:20;4.45;;;2.08;;
61188;SDS011;47054;39.716;2.904;2023-01-04T06:10:06;2.85;;;1.67;;
61188;SDS011;47054;39.716;2.904;2023-01-04T06:12:51;4.72;;;2.10;;
61188;SDS011;47054;39.716;2.904;2023-01-04T06:15:36;3.17;;;1.80;;
61188;SDS011;47054;39.716;2.904;2023-01-04T06:18:20;3.17;;;1.60;;
61188;SDS011;47054;39.716;2.904;2023-01-04T06:21:05;2.85;;;1.70;;
61188;SDS011;47054;39.716;2.904;2023-01-04T06:23:50;4.88;;;1.85;;
61188;SDS011;47054;39.716;2.904;2023-01-04T06:26:35;3.05;;;1.60;;
61188;SDS011;47054;39.716;2.904;2023-01-04T06:29:19;3.47;;;1.70;;
61188;SDS011;47054;39.716;2.904;2023-01-04T06:32:04;2.85;;;1.48;;
61188;SDS011;47054;39.716;2.904;2023-01-04T06:34:52;3.67;;;2.00;;
61188;SDS011;47054;39.716;2.904;2023-01-04T06:37:40;2.97;;;1.90;;
61188;SDS011;47054;39.716;2.904;2023-01-04T06:40:25;2.92;;;1.63;;
61188;SDS011;47054;39.716;2.904;2023-01-04T06:43:10;3.30;;;1.63;;
61188;SDS011;47054;39.716;2.904;2023-01-04T06:45:54;2.90;;;1.70;;
61188;SDS011;47054;39.716;2.904;2023-01-04T06:48:39;3.72;;;1.80;;
61188;SDS011;47054;39.716;2.904;2023-01-04T06:51:23;3.65;;;1.83;;
61188;SDS011;47054;39.716;2.904;2023-01-04T06:54:08;3.40;;;2.03;;
61188;SDS011;47054;39.716;2.904;2023-01-04T06:56:54;4.20;;;1.85;;
61188;SDS011;47054;39.716;2.904;2023-01-04T06:59:39;2.75;;;1.48;;
61188;SDS011;47054;39.716;2.904;2023-01-04T07:02:25;2.70;;;1.75;;
61188;SDS011;47054;39.716;2.904;2023-01-04T07:05:09;2.92;;;1.67;;
61188;SDS011;47054;39.716;2.904;2023-01-04T07:07:54;2.88;;;1.60;;
61188;SDS011;47054;39.716;2.904;2023-01-04T07:10:39;3.60;;;1.80;;
61188;SDS011;47054;39.716;2.904;2023-01-04T07:13:25;3.03;;;1.90;;
61188;SDS011;47054;39.716;2.904;2023-01-04T07:16:10;4.78;;;1.80;;
61188;SDS011;47054;39.716;2.904;2023-01-04T07:18:54;2.50;;;1.67;;
61188;SDS011;47054;39.716;2.904;2023-01-04T07:21:39;2.85;;;1.60;;
61188;SDS011;47054;39.716;2.904;2023-01-04T07:24:25;3.53;;;1.52;;
61188;SDS011;47054;39.716;2.904;2023-01-04T07:27:09;2.90;;;1.67;;
61188;SDS011;47054;39.716;2.904;2023-01-04T07:29:54;3.72;;;1.95;;
61188;SDS011;47054;39.716;2.904;2023-01-04T07:32:39;2.97;;;1.65;;
61188;SDS011;47054;39.716;2.904;2023-01-04T07:35:23;3.80;;;1.73;;
61188;SDS011;47054;39.716;2.904;2023-01-04T07:38:08;3.03;;;1.70;;
61188;SDS011;47054;39.716;2.904;2023-01-04T07:40:53;3.75;;;1.80;;
61188;SDS011;47054;39.716;2.904;2023-01-04T07:43:38;3.60;;;1.88;;
61188;SDS011;47054;39.716;2.904;2023-01-04T07:46:22;4.72;;;1.88;;
61188;SDS011;47054;39.716;2.904;2023-01-04T07:49:09;2.50;;;1.50;;
61188;SDS011;47054;39.716;2.904;2023-01-04T07:51:56;3.97;;;1.77;;
61188;SDS011;47054;39.716;2.904;2023-01-04T07:54:41;2.38;;;1.55;;
61188;SDS011;47054;39.716;2.904;2023-01-04T07:57:26;2.55;;;1.50;;
61188;SDS011;47054;39.716;2.904;2023-01-04T08:00:10;2.38;;;1.70;;
61188;SDS011;47054;39.716;2.904;2023-01-04T08:02:58;3.03;;;1.70;;
61188;SDS011;47054;39.716;2.904;2023-01-04T08:05:43;2.72;;;1.60;;
61188;SDS011;47054;39.716;2.904;2023-01-04T08:08:27;3.35;;;1.67;;
61188;SDS011;47054;39.716;2.904;2023-01-04T08:11:13;4.55;;;1.70;;
61188;SDS011;47054;39.716;2.904;2023-01-04T08:14:00;2.85;;;1.58;;
61188;SDS011;47054;39.716;2.904;2023-01-04T08:16:45;2.22;;;1.40;;
61188;SDS011;47054;39.716;2.904;2023-01-04T08:19:30;2.80;;;1.40;;
61188;SDS011;47054;39.716;2.904;2023-01-04T08:22:14;2.33;;;1.50;;
61188;SDS011;47054;39.716;2.904;2023-01-04T08:24:58;3.60;;;1.70;;
61188;SDS011;47054;39.716;2.904;2023-01-04T08:27:43;2.83;;;1.60;;
61188;SDS011;47054;39.716;2.904;2023-01-04T08:30:27;2.92;;;1.60;;
61188;SDS011;47054;39.716;2.904;2023-01-04T08:33:12;3.25;;;1.63;;
61188;SDS011;47054;39.716;2.904;2023-01-04T08:36:05;3.20;;;1.60;;
61188;SDS011;47054;39.716;2.904;2023-01-04T08:38:55;2.35;;;1.42;;
61188;SDS011;47054;39.716;2.904;2023-01-04T08:41:44;2.90;;;1.65;;
61188;SDS011;47054;39.716;2.904;2023-01-04T08:44:36;5.53;;;1.70;;
61188;SDS011;47054;39.716;2.904;2023-01-04T08:47:21;2.83;;;1.63;;
61188;SDS011;47054;39.716;2.904;2023-01-04T08:50:05;2.97;;;1.60;;
61188;SDS011;47054;39.716;2.904;2023-01-04T08:52:50;2.47;;;1.50;;
61188;SDS011;47054;39.716;2.904;2023-01-04T08:55:35;4.07;;;1.80;;
61188;SDS011;47054;39.716;2.904;2023-01-04T08:58:20;3.88;;;1.58;;
61188;SDS011;47054;39.716;2.904;2023-01-04T09:01:07;2.85;;;1.38;;
61188;SDS011;47054;39.716;2.904;2023-01-04T09:03:54;2.38;;;1.50;;
61188;SDS011;47054;39.716;2.904;2023-01-04T09:06:39;2.63;;;1.55;;
61188;SDS011;47054;39.716;2.904;2023-01-04T09:09:24;2.92;;;1.48;;
61188;SDS011;47054;39.716;2.904;2023-01-04T09:12:09;3.05;;;1.63;;
61188;SDS011;47054;39.716;2.904;2023-01-04T09:14:53;3.67;;;1.60;;
61188;SDS011;47054;39.716;2.904;2023-01-04T09:17:38;2.45;;;1.42;;
61188;SDS011;47054;39.716;2.904;2023-01-04T09:20:22;3.72;;;1.67;;
61188;SDS011;47054;39.716;2.904;2023-01-04T09:23:07;4.65;;;1.60;;
61188;SDS011;47054;39.716;2.904;2023-01-04T09:25:51;3.92;;;1.80;;
61188;SDS011;47054;39.716;2.904;2023-01-04T09:28:36;2.92;;;1.67;;
61188;SDS011;47054;39.716;2.904;2023-01-04T09:31:23;2.60;;;1.60;;
61188;SDS011;47054;39.716;2.904;2023-01-04T09:34:10;4.10;;;1.90;;
61188;SDS011;47054;39.716;2.904;2023-01-04T09:36:55;3.72;;;1.80;;
61188;SDS011;47054;39.716;2.904;2023-01-04T09:39:40;3.30;;;1.58;;
61188;SDS011;47054;39.716;2.904;2023-01-04T09:42:26;3.58;;;1.70;;
61188;SDS011;47054;39.716;2.904;2023-01-04T09:48:10;3.10;;;1.77;;
61188;SDS011;47054;39.716;2.904;2023-01-04T09:51:03;3.97;;;1.90;;
61188;SDS011;47054;39.716;2.904;2023-01-04T09:53:53;4.07;;;1.80;;
61188;SDS011;47054;39.716;2.904;2023-01-04T09:56:47;3.35;;;1.92;;
61188;SDS011;47054;39.716;2.904;2023-01-04T09:59:35;3.72;;;1.65;;
61188;SDS011;47054;39.716;2.904;2023-01-04T10:02:30;5.43;;;1.90;;
61188;SDS011;47054;39.716;2.904;2023-01-04T10:05:26;3.80;;;2.05;;
61188;SDS011;47054;39.716;2.904;2023-01-04T10:08:13;3.72;;;2.03;;
61188;SDS011;47054;39.716;2.904;2023-01-04T10:17:43;3.50;;;2.08;;
61188;SDS011;47054;39.716;2.904;2023-01-04T10:26:49;4.30;;;2.10;;
61188;SDS011;47054;39.716;2.904;2023-01-04T10:29:39;4.93;;;2.25;;
61188;SDS011;47054;39.716;2.904;2023-01-04T10:32:32;4.93;;;2.30;;
61188;SDS011;47054;39.716;2.904;2023-01-04T10:35:23;4.85;;;2.20;;
61188;SDS011;47054;39.716;2.904;2023-01-04T10:38:16;3.60;;;2.00;;
61188;SDS011;47054;39.716;2.904;2023-01-04T10:41:15;4.63;;;2.30;;
61188;SDS011;47054;39.716;2.904;2023-01-04T10:47:18;6.28;;;2.40;;
61188;SDS011;47054;39.716;2.904;2023-01-04T10:50:26;6.65;;;2.20;;
61188;SDS011;47054;39.716;2.904;2023-01-04T10:56:14;3.97;;;2.03;;
61188;SDS011;47054;39.716;2.904;2023-01-04T10:59:12;5.18;;;2.00;;
61188;SDS011;47054;39.716;2.904;2023-01-04T11:11:18;4.43;;;2.45;;
61188;SDS011;47054;39.716;2.904;2023-01-04T11:14:07;4.63;;;2.20;;
61188;SDS011;47054;39.716;2.904;2023-01-04T11:16:57;6.47;;;2.67;;
61188;SDS011;47054;39.716;2.904;2023-01-04T11:19:44;5.00;;;2.42;;
61188;SDS011;47054;39.716;2.904;2023-01-04T11:22:36;4.95;;;2.33;;
61188;SDS011;47054;39.716;2.904;2023-01-04T11:25:25;5.40;;;2.60;;
61188;SDS011;47054;39.716;2.904;2023-01-04T11:28:17;5.63;;;2.50;;
61188;SDS011;47054;39.716;2.904;2023-01-04T11:33:58;4.38;;;2.45;;
61188;SDS011;47054;39.716;2.904;2023-01-04T11:36:46;5.55;;;2.30;;
61188;SDS011;47054;39.716;2.904;2023-01-04T11:39:31;4.43;;;2.25;;
61188;SDS011;47054;39.716;2.904;2023-01-04T11:42:19;5.43;;;2.70;;
61188;SDS011;47054;39.716;2.904;2023-01-04T11:45:05;6.72;;;2.65;;
61188;SDS011;47054;39.716;2.904;2023-01-04T11:47:59;5.00;;;2.58;;
61188;SDS011;47054;39.716;2.904;2023-01-04T11:50:45;5.97;;;2.67;;
61188;SDS011;47054;39.716;2.904;2023-01-04T11:53:32;6.05;;;2.78;;
61188;SDS011;47054;39.716;2.904;2023-01-04T11:56:20;4.40;;;2.10;;
61188;SDS011;47054;39.716;2.904;2023-01-04T11:59:13;5.63;;;2.42;;
61188;SDS011;47054;39.716;2.904;2023-01-04T12:05:05;7.82;;;2.67;;
61188;SDS011;47054;39.716;2.904;2023-01-04T12:08:02;4.38;;;2.28;;
61188;SDS011;47054;39.716;2.904;2023-01-04T12:10:47;3.88;;;2.30;;
61188;SDS011;47054;39.716;2.904;2023-01-04T12:13:32;5.70;;;2.40;;
61188;SDS011;47054;39.716;2.904;2023-01-04T12:19:33;5.72;;;2.20;;
61188;SDS011;47054;39.716;2.904;2023-01-04T12:31:29;5.90;;;2.38;;
61188;SDS011;47054;39.716;2.904;2023-01-04T12:37:06;7.82;;;2.90;;
61188;SDS011;47054;39.716;2.904;2023-01-04T12:39:52;6.78;;;2.65;;
61188;SDS011;47054;39.716;2.904;2023-01-04T12:42:36;6.38;;;2.83;;
61188;SDS011;47054;39.716;2.904;2023-01-04T12:45:45;4.82;;;2.50;;
61188;SDS011;47054;39.716;2.904;2023-01-04T12:48:50;4.60;;;2.65;;
61188;SDS011;47054;39.716;2.904;2023-01-04T12:51:47;6.80;;;2.78;;
61188;SDS011;47054;39.716;2.904;2023-01-04T12:54:48;7.43;;;3.10;;
61188;SDS011;47054;39.716;2.904;2023-01-04T13:00:20;5.60;;;2.58;;
61188;SDS011;47054;39.716;2.904;2023-01-04T13:06:03;6.70;;;2.70;;
61188;SDS011;47054;39.716;2.904;2023-01-04T13:08:50;5.07;;;2.70;;
61188;SDS011;47054;39.716;2.904;2023-01-04T13:11:52;5.03;;;2.95;;
61188;SDS011;47054;39.716;2.904;2023-01-04T13:14:46;6.63;;;2.80;;
61188;SDS011;47054;39.716;2.904;2023-01-04T13:17:37;5.80;;;2.58;;
61188;SDS011;47054;39.716;2.904;2023-01-04T13:20:23;5.03;;;2.35;;
61188;SDS011;47054;39.716;2.904;2023-01-04T13:23:09;5.15;;;2.67;;
61188;SDS011;47054;39.716;2.904;2023-01-04T13:26:03;5.00;;;2.60;;
61188;SDS011;47054;39.716;2.904;2023-01-04T13:35:02;4.68;;;2.53;;
61188;SDS011;47054;39.716;2.904;2023-01-04T13:37:53;5.47;;;2.80;;
61188;SDS011;47054;39.716;2.904;2023-01-04T13:40:42;7.03;;;2.85;;
61188;SDS011;47054;39.716;2.904;2023-01-04T13:46:40;5.20;;;2.40;;
61188;SDS011;47054;39.716;2.904;2023-01-04T13:49:26;9.20;;;2.40;;
61188;SDS011;47054;39.716;2.904;2023-01-04T13:52:13;6.53;;;2.70;;
61188;SDS011;47054;39.716;2.904;2023-01-04T13:58:17;6.47;;;2.70;;
61188;SDS011;47054;39.716;2.904;2023-01-04T14:01:18;5.38;;;2.63;;
61188;SDS011;47054;39.716;2.904;2023-01-04T14:04:05;6.30;;;2.78;;
61188;SDS011;47054;39.716;2.904;2023-01-04T14:06:59;6.18;;;2.80;;
61188;SDS011;47054;39.716;2.904;2023-01-04T14:09:45;4.68;;;2.40;;
61188;SDS011;47054;39.716;2.904;2023-01-04T14:12:33;6.20;;;2.58;;
61188;SDS011;47054;39.716;2.904;2023-01-04T14:15:24;6.85;;;3.08;;
61188;SDS011;47054;39.716;2.904;2023-01-04T14:21:31;4.80;;;2.67;;
61188;SDS011;47054;39.716;2.904;2023-01-04T14:24:53;4.28;;;2.42;;
61188;SDS011;47054;39.716;2.904;2023-01-04T14:33:02;6.07;;;2.92;;
61188;SDS011;47054;39.716;2.904;2023-01-04T14:39:23;5.05;;;2.47;;
61188;SDS011;47054;39.716;2.904;2023-01-04T14:42:26;8.40;;;3.00;;
61188;SDS011;47054;39.716;2.904;2023-01-04T14:45:11;6.00;;;2.90;;
61188;SDS011;47054;39.716;2.904;2023-01-04T14:47:58;5.25;;;2.28;;
61188;SDS011;47054;39.716;2.904;2023-01-04T14:50:43;4.57;;;2.45;;
61188;SDS011;47054;39.716;2.904;2023-01-04T14:53:27;7.00;;;2.53;;
61188;SDS011;47054;39.716;2.904;2023-01-04T14:56:13;5.68;;;2.78;;
61188;SDS011;47054;39.716;2.904;2023-01-04T14:58:59;5.22;;;2.60;;
61188;SDS011;47054;39.716;2.904;2023-01-04T15:01:44;5.72;;;2.55;;
61188;SDS011;47054;39.716;2.904;2023-01-04T15:04:29;5.78;;;2.92;;
61188;SDS011;47054;39.716;2.904;2023-01-04T15:07:31;5.95;;;2.72;;
61188;SDS011;47054;39.716;2.904;2023-01-04T15:10:22;5.68;;;2.70;;
61188;SDS011;47054;39.716;2.904;2023-01-04T15:13:09;5.45;;;2.58;;
61188;SDS011;47054;39.716;2.904;2023-01-04T15:15:54;4.97;;;2.72;;
61188;SDS011;47054;39.716;2.904;2023-01-04T15:18:41;6.20;;;2.78;;
61188;SDS011;47054;39.716;2.904;2023-01-04T15:21:26;6.60;;;2.67;;
61188;SDS011;47054;39.716;2.904;2023-01-04T15:24:12;5.15;;;2.65;;
61188;SDS011;47054;39.716;2.904;2023-01-04T15:26:58;4.78;;;2.70;;
61188;SDS011;47054;39.716;2.904;2023-01-04T15:29:42;4.85;;;2.65;;
61188;SDS011;47054;39.716;2.904;2023-01-04T15:32:27;5.18;;;2.65;;
61188;SDS011;47054;39.716;2.904;2023-01-04T15:35:12;3.75;;;2.30;;
61188;SDS011;47054;39.716;2.904;2023-01-04T15:38:00;5.97;;;2.75;;
61188;SDS011;47054;39.716;2.904;2023-01-04T15:40:44;6.82;;;2.55;;
61188;SDS011;47054;39.716;2.904;2023-01-04T15:43:29;4.93;;;2.47;;
61188;SDS011;47054;39.716;2.904;2023-01-04T15:46:16;4.88;;;2.60;;
61188;SDS011;47054;39.716;2.904;2023-01-04T15:49:01;5.90;;;2.30;;
61188;SDS011;47054;39.716;2.904;2023-01-04T15:51:46;5.03;;;2.35;;
61188;SDS011;47054;39.716;2.904;2023-01-04T15:54:30;4.60;;;2.53;;
61188;SDS011;47054;39.716;2.904;2023-01-04T15:57:15;4.70;;;2.40;;
61188;SDS011;47054;39.716;2.904;2023-01-04T16:00:00;6.47;;;2.40;;
61188;SDS011;47054;39.716;2.904;2023-01-04T16:02:45;4.45;;;2.50;;
61188;SDS011;47054;39.716;2.904;2023-01-04T16:05:29;4.03;;;2.20;;
61188;SDS011;47054;39.716;2.904;2023-01-04T16:08:14;4.47;;;2.38;;
61188;SDS011;47054;39.716;2.904;2023-01-04T16:10:58;5.10;;;2.50;;
61188;SDS011;47054;39.716;2.904;2023-01-04T16:13:51;6.80;;;2.38;;
61188;SDS011;47054;39.716;2.904;2023-01-04T16:16:37;6.55;;;2.45;;
61188;SDS011;47054;39.716;2.904;2023-01-04T16:19:21;6.53;;;2.70;;
61188;SDS011;47054;39.716;2.904;2023-01-04T16:22:06;4.70;;;2.50;;
61188;SDS011;47054;39.716;2.904;2023-01-04T16:24:52;4.55;;;2.38;;
61188;SDS011;47054;39.716;2.904;2023-01-04T16:27:36;5.63;;;2.47;;
61188;SDS011;47054;39.716;2.904;2023-01-04T16:30:22;5.22;;;2.30;;
61188;SDS011;47054;39.716;2.904;2023-01-04T16:33:07;6.15;;;2.70;;
61188;SDS011;47054;39.716;2.904;2023-01-04T16:36:02;5.55;;;2.70;;
61188;SDS011;47054;39.716;2.904;2023-01-04T16:38:49;6.75;;;2.70;;
61188;SDS011;47054;39.716;2.904;2023-01-04T16:41:33;4.85;;;2.50;;
61188;SDS011;47054;39.716;2.904;2023-01-04T16:44:18;6.07;;;2.65;;
61188;SDS011;47054;39.716;2.904;2023-01-04T16:47:04;7.72;;;2.70;;
61188;SDS011;47054;39.716;2.904;2023-01-04T16:49:50;6.22;;;2.50;;
61188;SDS011;47054;39.716;2.904;2023-01-04T16:52:36;5.32;;;2.45;;
61188;SDS011;47054;39.716;2.904;2023-01-04T16:55:22;5.18;;;2.55;;
61188;SDS011;47054;39.716;2.904;2023-01-04T16:58:06;5.10;;;2.60;;
61188;SDS011;47054;39.716;2.904;2023-01-04T17:00:50;5.60;;;2.70;;
61188;SDS011;47054;39.716;2.904;2023-01-04T17:03:36;6.35;;;3.35;;
61188;SDS011;47054;39.716;2.904;2023-01-04T17:06:22;6.05;;;3.20;;
61188;SDS011;47054;39.716;2.904;2023-01-04T17:09:17;7.30;;;3.08;;
61188;SDS011;47054;39.716;2.904;2023-01-04T17:12:04;5.88;;;3.20;;
61188;SDS011;47054;39.716;2.904;2023-01-04T17:14:49;7.70;;;3.00;;
61188;SDS011;47054;39.716;2.904;2023-01-04T17:17:34;6.00;;;3.35;;
61188;SDS011;47054;39.716;2.904;2023-01-04T17:20:19;5.18;;;2.78;;
61188;SDS011;47054;39.716;2.904;2023-01-04T17:23:03;6.70;;;3.33;;
61188;SDS011;47054;39.716;2.904;2023-01-04T17:25:48;5.82;;;3.08;;
61188;SDS011;47054;39.716;2.904;2023-01-04T17:28:32;6.22;;;3.17;;
61188;SDS011;47054;39.716;2.904;2023-01-04T17:31:18;6.05;;;3.15;;
61188;SDS011;47054;39.716;2.904;2023-01-04T17:34:06;12.30;;;5.05;;
61188;SDS011;47054;39.716;2.904;2023-01-04T17:36:53;12.65;;;4.40;;
61188;SDS011;47054;39.716;2.904;2023-01-04T17:39:37;10.52;;;4.78;;
61188;SDS011;47054;39.716;2.904;2023-01-04T17:42:22;9.50;;;4.47;;
61188;SDS011;47054;39.716;2.904;2023-01-04T17:45:07;13.93;;;5.05;;
61188;SDS011;47054;39.716;2.904;2023-01-04T17:47:52;15.63;;;7.15;;
61188;SDS011;47054;39.716;2.904;2023-01-04T17:50:37;15.15;;;5.18;;
61188;SDS011;47054;39.716;2.904;2023-01-04T17:53:22;13.95;;;5.80;;
61188;SDS011;47054;39.716;2.904;2023-01-04T17:56:08;14.90;;;6.03;;
61188;SDS011;47054;39.716;2.904;2023-01-04T17:58:57;18.45;;;6.97;;
61188;SDS011;47054;39.716;2.904;2023-01-04T18:01:46;18.45;;;7.13;;
61188;SDS011;47054;39.716;2.904;2023-01-04T18:04:30;18.35;;;6.82;;
61188;SDS011;47054;39.716;2.904;2023-01-04T18:07:15;13.48;;;6.28;;
61188;SDS011;47054;39.716;2.904;2023-01-04T18:10:00;16.33;;;6.68;;
61188;SDS011;47054;39.716;2.904;2023-01-04T18:12:45;20.80;;;7.85;;
61188;SDS011;47054;39.716;2.904;2023-01-04T18:15:29;17.90;;;7.78;;
61188;SDS011;47054;39.716;2.904;2023-01-04T18:18:14;20.00;;;7.50;;
61188;SDS011;47054;39.716;2.904;2023-01-04T18:24:00;19.23;;;6.97;;
61188;SDS011;47054;39.716;2.904;2023-01-04T18:26:46;19.92;;;8.00;;
61188;SDS011;47054;39.716;2.904;2023-01-04T18:29:31;19.80;;;7.90;;
61188;SDS011;47054;39.716;2.904;2023-01-04T18:32:15;19.17;;;8.25;;
61188;SDS011;47054;39.716;2.904;2023-01-04T18:35:00;19.15;;;7.95;;
61188;SDS011;47054;39.716;2.904;2023-01-04T18:37:49;22.08;;;8.13;;
61188;SDS011;47054;39.716;2.904;2023-01-04T18:40:33;21.67;;;8.65;;
61188;SDS011;47054;39.716;2.904;2023-01-04T18:43:18;20.15;;;8.32;;
61188;SDS011;47054;39.716;2.904;2023-01-04T18:46:06;21.58;;;8.43;;
61188;SDS011;47054;39.716;2.904;2023-01-04T18:48:54;19.27;;;7.93;;
61188;SDS011;47054;39.716;2.904;2023-01-04T18:51:40;20.08;;;8.52;;
61188;SDS011;47054;39.716;2.904;2023-01-04T18:54:25;22.10;;;9.32;;
61188;SDS011;47054;39.716;2.904;2023-01-04T18:57:10;22.80;;;8.73;;
61188;SDS011;47054;39.716;2.904;2023-01-04T18:59:54;20.77;;;8.18;;
61188;SDS011;47054;39.716;2.904;2023-01-04T19:02:39;23.45;;;8.88;;